Bajool, Australia
Current Conditions -  °F | °C
As of 10:00 AM on Wednesday 26 Nov 2014 (Local Time) from YBRK Reporting Station
Broken Clouds Broken Clouds  
Wind Chill: 82°   Ceiling: 3500
Heat Index: 85°   Visibility: 6mi
Dew Point: 66°   Wind: 8mph
Humidity: 58%   Direction: 90°E
Pressure: 29.97"   Gusts: NA
Location:  23.65°S, 150.64°E
Report Text: YBRK 260000Z 09007KT 9999 BKN035 BKN070 28/19 Q1015
Loading
Personal Weather Stations






























Interactive Weather Map New forecast layout! Learn more

10-Day Weather Forecast

Advertisements
Track Severe Weather on mobile